Terminal Aerodrome Forecast
Issued by NWS

Home | Current Version | Previous Version | Text Only | Print | Product List | Glossary On
Versions: 1 2 3 4 5 6 7 8 9 10 11 12 13 14 15 16 17 18 19 20 21
000
FTUS45 KFGZ 311100
TAFPGA
TAF
KPGA 311123Z 3112/0112 VRB05KT P6SM VCSH SCT009 BKN020
      TEMPO 3112/3116 5SM -RA BKN009 OVC020
     FM311600 VRB05KT P6SM VCSH SCT025 SCT100
     FM312000 VRB05KT P6SM BKN050
     FM010200 VRB05KT P6SM FEW050
      TEMPO 0108/0112 1SM BR FEW002 BKN006
      AMD NOT SKED=

USA.gov is the U.S. government's official web portal to all federal, state and local government web resources and services.